createdAt,value
2022-12-08T00:02:05.365Z,100668.38
2022-12-08T00:04:53.690Z,100664.13
2022-12-08T00:07:39.326Z,100659.03
2022-12-08T00:10:32.285Z,100658.16
2022-12-08T00:12:57.328Z,100650.50
2022-12-08T00:15:25.819Z,100653.94
2022-12-08T00:17:55.440Z,100650.53
2022-12-08T00:20:23.658Z,100653.13
2022-12-08T00:22:51.945Z,100645.44
2022-12-08T00:25:20.148Z,100633.53
2022-12-08T00:27:48.355Z,100634.41
2022-12-08T00:30:16.841Z,100625.91
2022-12-08T00:32:45.056Z,100626.78
2022-12-08T00:35:15.137Z,100619.97
2022-12-08T00:37:43.418Z,100618.25
2022-12-08T00:40:12.121Z,100617.38
2022-12-08T00:42:40.307Z,100612.28
2022-12-08T00:45:09.064Z,100607.19
2022-12-08T00:47:37.563Z,100604.63
2022-12-08T00:50:06.759Z,100602.13
2022-12-08T00:52:37.014Z,100599.56
2022-12-08T00:55:06.130Z,100597.88
2022-12-08T00:57:34.393Z,100599.59
2022-12-08T01:00:03.271Z,100591.94
2022-12-08T01:02:33.914Z,100593.69
2022-12-08T01:05:02.372Z,100589.41
2022-12-08T01:07:30.727Z,100584.28
2022-12-08T01:10:00.377Z,100575.75
2022-12-08T01:12:30.460Z,100575.78
2022-12-08T01:15:02.503Z,100574.91
2022-12-08T01:17:31.404Z,100570.63
2022-12-08T01:19:59.718Z,100560.31
2022-12-08T01:22:27.937Z,100565.41
2022-12-08T01:24:56.433Z,100563.69
2022-12-08T01:27:26.137Z,100563.69
2022-12-08T01:29:55.647Z,100560.22
2022-12-08T01:32:24.158Z,100555.94
2022-12-08T01:34:52.659Z,100554.19
2022-12-08T01:37:20.922Z,100555.91
2022-12-08T01:39:49.127Z,100558.44
2022-12-08T01:42:22.198Z,100553.28
2022-12-08T01:45:03.791Z,100544.75
2022-12-08T01:47:39.494Z,100532.81
2022-12-08T01:50:12.781Z,100539.72
2022-12-08T01:52:45.439Z,100531.22
2022-12-08T01:55:18.831Z,100538.97
2022-12-08T01:57:50.875Z,100532.19
2022-12-08T02:00:23.170Z,100533.94
2022-12-08T02:02:56.793Z,100537.38
2022-12-08T02:05:28.767Z,100538.28
2022-12-08T02:07:58.641Z,100542.56
2022-12-08T02:10:31.628Z,100542.53
2022-12-08T02:13:01.739Z,100543.38
2022-12-08T02:15:38.731Z,100533.97
2022-12-08T02:18:24.214Z,100546.78
2022-12-08T02:20:59.546Z,100539.91
2022-12-08T02:23:38.029Z,100540.75
2022-12-08T02:26:30.159Z,100542.41
2022-12-08T02:29:38.956Z,100526.13
2022-12-08T02:32:29.621Z,100527.78
2022-12-08T02:35:04.404Z,100525.16
2022-12-08T02:37:37.371Z,100519.13
2022-12-08T02:40:14.880Z,100526.75
2022-12-08T02:42:47.388Z,100521.63
2022-12-08T02:45:18.957Z,100509.66
2022-12-08T02:47:48.045Z,100512.25
2022-12-08T02:50:17.818Z,100515.69
2022-12-08T02:52:47.437Z,100508.91
2022-12-08T02:55:27.255Z,100507.22
2022-12-08T02:58:30.808Z,100496.13
2022-12-08T03:01:16.043Z,100503.84
2022-12-08T03:03:53.188Z,100491.84
2022-12-08T03:06:30.735Z,100488.44
2022-12-08T03:09:05.190Z,100486.78
2022-12-08T03:11:41.280Z,100485.09
2022-12-08T03:14:13.662Z,100479.09
2022-12-08T03:16:46.940Z,100475.66
2022-12-08T03:19:20.305Z,100468.81
2022-12-08T03:21:53.935Z,100469.63
2022-12-08T03:24:24.410Z,100463.66
2022-12-08T03:26:57.919Z,100467.06
2022-12-08T03:29:26.620Z,100452.47
2022-12-08T03:31:58.718Z,100459.25
2022-12-08T03:34:30.125Z,100455.78
2022-12-08T03:37:02.610Z,100453.16
2022-12-08T03:39:31.042Z,100448.81
2022-12-08T03:41:59.805Z,100448.78
2022-12-08T03:44:28.160Z,100449.63
2022-12-08T03:46:56.800Z,100446.19
2022-12-08T03:49:25.030Z,100453.00
2022-12-08T03:51:53.647Z,100447.78
2022-12-08T03:54:24.384Z,100453.75
2022-12-08T03:56:53.662Z,100449.44
2022-12-08T03:59:21.892Z,100457.09
2022-12-08T04:01:50.266Z,100444.31
2022-12-08T04:04:19.107Z,100439.91
2022-12-08T04:06:47.688Z,100439.78
2022-12-08T04:09:16.020Z,100424.28
2022-12-08T04:11:45.718Z,100422.56
2022-12-08T04:14:14.040Z,100427.72
2022-12-08T04:16:44.218Z,100420.00
2022-12-08T04:19:12.751Z,100416.53
2022-12-08T04:21:41.048Z,100411.41
2022-12-08T04:24:10.213Z,100411.34
2022-12-08T04:26:38.510Z,100403.63
2022-12-08T04:29:08.158Z,100407.91
2022-12-08T04:31:36.511Z,100401.91
2022-12-08T04:34:04.965Z,100397.59
2022-12-08T04:36:33.301Z,100398.41
2022-12-08T04:39:01.861Z,100400.13
2022-12-08T04:41:30.221Z,100394.94
2022-12-08T04:43:58.847Z,100382.97
2022-12-08T04:46:28.631Z,100381.22
2022-12-08T04:48:57.052Z,100373.50
2022-12-08T04:51:25.320Z,100369.25
2022-12-08T04:53:53.602Z,100376.13
2022-12-08T04:56:21.905Z,100383.03
2022-12-08T04:58:50.200Z,100378.81
2022-12-08T05:01:18.537Z,100383.13
2022-12-08T05:03:48.299Z,100371.25
2022-12-08T05:06:16.951Z,100381.56
2022-12-08T05:08:45.565Z,100375.56
2022-12-08T05:11:14.807Z,100367.91
2022-12-08T05:13:43.064Z,100368.81
2022-12-08T05:16:13.503Z,100359.44
2022-12-08T05:18:43.256Z,100362.09
2022-12-08T05:21:13.212Z,100368.09
2022-12-08T05:23:41.544Z,100361.28
2022-12-08T05:26:10.165Z,100360.41
2022-12-08T05:28:41.703Z,100357.00
2022-12-08T05:31:11.358Z,100361.28
2022-12-08T05:33:39.756Z,100354.38
2022-12-08T05:36:08.591Z,100347.53
2022-12-08T05:38:38.452Z,100350.06
2022-12-08T05:41:08.242Z,100350.97
2022-12-08T05:43:38.091Z,100355.28
2022-12-08T05:46:06.738Z,100346.78
2022-12-08T05:48:35.644Z,100350.16
2022-12-08T05:51:04.315Z,100343.28
2022-12-08T05:53:32.653Z,100349.25
2022-12-08T05:56:02.355Z,100338.97
2022-12-08T05:58:30.648Z,100343.25
2022-12-08T06:00:59.259Z,100335.56
2022-12-08T06:03:28.633Z,100331.41
2022-12-08T06:05:56.998Z,100331.41
2022-12-08T06:08:25.883Z,100326.31
2022-12-08T06:10:54.957Z,100322.03
2022-12-08T06:13:25.164Z,100321.25
2022-12-08T06:15:53.498Z,100324.63
2022-12-08T06:18:21.859Z,100319.44
2022-12-08T06:20:50.107Z,100323.63
2022-12-08T06:23:18.456Z,100321.03
2022-12-08T06:25:46.981Z,100321.84
2022-12-08T06:28:15.599Z,100310.59
2022-12-08T06:30:45.267Z,100316.50
2022-12-08T06:33:13.579Z,100319.81
2022-12-08T06:35:41.811Z,100316.25
2022-12-08T06:38:10.551Z,100309.34
2022-12-08T06:40:38.755Z,100310.13
2022-12-08T06:43:07.025Z,100306.69
2022-12-08T06:45:35.306Z,100310.91
2022-12-08T06:48:05.225Z,100310.06
2022-12-08T06:50:35.151Z,100314.34
2022-12-08T06:53:05.720Z,100315.16
2022-12-08T06:55:57.748Z,100311.81
2022-12-08T06:58:23.127Z,100307.63
2022-12-08T07:00:51.684Z,100299.19
2022-12-08T07:03:21.498Z,100300.03
2022-12-08T07:05:50.065Z,100294.97
2022-12-08T07:08:18.462Z,100287.28
2022-12-08T07:10:46.954Z,100283.81
2022-12-08T07:13:15.287Z,100285.69
2022-12-08T07:15:43.650Z,100289.09
2022-12-08T07:18:11.902Z,100275.38
2022-12-08T07:20:41.672Z,100277.97
2022-12-08T07:23:10.193Z,100270.25
2022-12-08T07:25:38.538Z,100259.97
2022-12-08T07:28:11.698Z,100268.56
2022-12-08T07:30:40.741Z,100265.09
2022-12-08T07:33:09.070Z,100260.06
2022-12-08T07:35:45.006Z,100254.22
2022-12-08T07:38:18.786Z,100257.75
2022-12-08T07:40:47.129Z,100258.69
2022-12-08T07:43:15.715Z,100254.53
2022-12-08T07:45:46.742Z,100249.47
2022-12-08T07:48:15.888Z,100251.22
2022-12-08T07:50:47.100Z,100244.38
2022-12-08T07:53:15.930Z,100248.78
2022-12-08T07:55:45.957Z,100241.03
2022-12-08T07:58:15.797Z,100249.63
2022-12-08T08:00:44.149Z,100245.41
2022-12-08T08:03:13.417Z,100236.00
2022-12-08T08:05:42.120Z,100233.44
2022-12-08T08:08:10.765Z,100236.03
2022-12-08T08:10:39.068Z,100244.53
2022-12-08T08:13:09.787Z,100242.06
2022-12-08T08:15:38.520Z,100241.97
2022-12-08T08:18:06.976Z,100246.25
2022-12-08T08:20:35.586Z,100246.09
2022-12-08T08:23:03.913Z,100237.56
2022-12-08T08:25:32.337Z,100247.72
2022-12-08T08:28:00.627Z,100244.25
2022-12-08T08:30:30.396Z,100231.16
2022-12-08T08:32:58.647Z,100227.47
2022-12-08T08:35:26.947Z,100228.97
2022-12-08T08:37:55.460Z,100223.66
2022-12-08T08:40:24.184Z,100231.19
2022-12-08T08:42:52.536Z,100230.75
2022-12-08T08:45:20.852Z,100221.38
2022-12-08T08:47:50.500Z,100210.81
2022-12-08T08:50:18.808Z,100207.75
2022-12-08T08:52:47.074Z,100200.66
2022-12-08T08:55:15.639Z,100189.56
2022-12-08T08:57:44.055Z,100183.63
2022-12-08T09:00:13.565Z,100186.94
2022-12-08T09:02:42.124Z,100183.97
2022-12-08T09:05:13.478Z,100171.75
2022-12-08T09:07:41.810Z,100176.59
2022-12-08T09:10:11.235Z,100173.59
2022-12-08T09:12:39.553Z,100173.72
2022-12-08T09:15:08.721Z,100171.28
2022-12-08T09:17:37.055Z,100173.81
2022-12-08T09:20:06.422Z,100183.66
2022-12-08T09:22:37.172Z,100175.50
2022-12-08T09:25:06.057Z,100165.66
2022-12-08T09:27:34.460Z,100167.41
2022-12-08T09:30:03.468Z,100171.66
2022-12-08T09:32:31.908Z,100167.91
2022-12-08T09:35:00.384Z,100163.56
2022-12-08T09:37:28.815Z,100164.47
2022-12-08T09:39:58.454Z,100162.63
2022-12-08T09:42:35.028Z,100174.44
2022-12-08T09:45:07.017Z,100176.00
2022-12-08T09:47:40.517Z,100183.25
2022-12-08T09:50:15.663Z,100181.25
2022-12-08T09:52:48.721Z,100175.81
2022-12-08T09:55:25.643Z,100178.06
2022-12-08T09:58:02.976Z,100187.31
2022-12-08T10:00:32.211Z,100177.69
2022-12-08T10:03:01.196Z,100187.31
2022-12-08T10:05:34.490Z,100193.50
2022-12-08T10:08:10.040Z,100188.50
2022-12-08T10:10:43.857Z,100187.91
2022-12-08T10:13:21.161Z,100188.97
2022-12-08T10:15:59.798Z,100181.31
2022-12-08T10:18:31.709Z,100186.34
2022-12-08T10:21:12.000Z,100183.63
2022-12-08T10:23:42.545Z,100185.38
2022-12-08T10:26:14.804Z,100186.03
2022-12-08T10:28:45.412Z,100181.81
2022-12-08T10:31:18.223Z,100173.75
2022-12-08T10:33:49.279Z,100172.63
2022-12-08T10:36:17.610Z,100165.25
2022-12-08T10:38:45.848Z,100160.06
2022-12-08T10:41:18.353Z,100159.22
2022-12-08T10:43:49.345Z,100161.63
2022-12-08T10:46:21.386Z,100152.63
2022-12-08T10:48:53.162Z,100148.66
2022-12-08T10:51:28.581Z,100144.44
2022-12-08T10:53:57.226Z,100140.47
2022-12-08T10:56:29.717Z,100132.19
2022-12-08T10:59:15.382Z,100134.41
2022-12-08T11:01:47.947Z,100124.38
2022-12-08T11:04:19.888Z,100123.16
2022-12-08T11:06:49.615Z,100122.94
2022-12-08T11:09:38.470Z,100117.34
2022-12-08T11:12:15.628Z,100124.69
2022-12-08T11:14:51.928Z,100117.88
2022-12-08T11:17:27.695Z,100105.97
2022-12-08T11:20:01.479Z,100101.91
2022-12-08T11:22:33.288Z,100104.81
2022-12-08T11:25:04.190Z,100106.53
2022-12-08T11:27:36.746Z,100105.34
2022-12-08T11:30:12.731Z,100111.72
2022-12-08T11:32:44.788Z,100101.78
2022-12-08T11:35:21.952Z,100100.94
2022-12-08T11:37:50.409Z,100087.47
2022-12-08T11:40:24.525Z,100092.63
2022-12-08T11:43:10.013Z,100097.34
2022-12-08T11:45:38.360Z,100070.13
2022-12-08T11:48:15.717Z,100085.72
2022-12-08T11:50:50.798Z,100079.00
2022-12-08T11:53:29.078Z,100091.75
2022-12-08T11:56:01.820Z,100076.56
2022-12-08T11:58:39.528Z,100086.28
2022-12-08T12:01:18.046Z,100076.56
2022-12-08T12:03:51.778Z,100075.88
2022-12-08T12:06:57.573Z,100082.00
2022-12-08T12:09:39.139Z,100084.38
2022-12-08T12:12:16.731Z,100064.75
2022-12-08T12:15:11.588Z,100068.19
2022-12-08T12:17:44.823Z,100061.63
2022-12-08T12:20:18.791Z,100062.19
2022-12-08T12:22:53.255Z,100049.53
2022-12-08T12:25:24.203Z,100053.72
2022-12-08T12:27:57.585Z,100056.50
2022-12-08T12:30:29.681Z,100057.66
2022-12-08T12:33:01.201Z,100051.84
2022-12-08T12:35:35.813Z,100047.00
2022-12-08T12:38:28.640Z,100049.63
2022-12-08T12:41:01.285Z,100040.72
2022-12-08T12:43:33.687Z,100041.00
2022-12-08T12:46:41.455Z,100047.22
2022-12-08T12:49:54.443Z,100034.84
2022-12-08T12:52:43.098Z,100029.63
2022-12-08T12:55:52.478Z,100028.63
2022-12-08T12:58:37.017Z,100021.00
2022-12-08T13:01:47.659Z,100021.16
2022-12-08T13:04:16.484Z,100015.66
2022-12-08T13:06:49.901Z,100007.16
2022-12-08T13:09:25.031Z,100010.16
2022-12-08T13:11:57.004Z,99996.78
2022-12-08T13:14:30.815Z,100002.03
2022-12-08T13:17:02.769Z,99992.41
2022-12-08T13:19:34.065Z,99994.38
2022-12-08T13:22:02.900Z,99983.38
2022-12-08T13:24:36.399Z,99991.13
2022-12-08T13:27:36.242Z,99971.84
2022-12-08T13:30:41.586Z,99983.56
2022-12-08T13:33:18.964Z,99980.59
2022-12-08T13:35:57.926Z,99990.56
2022-12-08T13:38:31.355Z,99983.25
2022-12-08T13:41:04.219Z,99992.16
2022-12-08T13:43:51.292Z,99987.59
2022-12-08T13:54:16.459Z,99976.19
2022-12-08T13:56:51.414Z,99977.66
2022-12-08T13:58:19.300Z,99971.44
2022-12-08T14:00:58.804Z,99968.78
2022-12-08T14:03:27.685Z,99968.06
2022-12-08T14:06:13.563Z,99961.78
2022-12-08T14:09:05.273Z,99963.72
2022-12-08T14:11:37.343Z,99954.56
2022-12-08T14:14:07.281Z,99961.53
2022-12-08T14:16:39.864Z,99956.47
2022-12-08T14:19:18.001Z,99945.84
2022-12-08T14:21:55.027Z,99948.91
2022-12-08T14:24:24.500Z,99946.50
2022-12-08T14:26:55.600Z,99938.19
2022-12-08T14:29:39.568Z,99933.09
2022-12-08T14:32:21.677Z,99926.28
2022-12-08T14:34:56.656Z,99920.06
2022-12-08T14:37:28.150Z,99914.25
2022-12-08T14:40:01.979Z,99914.00
2022-12-08T14:42:31.973Z,99913.94
2022-12-08T14:45:05.421Z,99917.25
2022-12-08T14:47:35.528Z,99907.75
2022-12-08T14:50:06.731Z,99907.97
2022-12-08T14:52:44.708Z,99914.03
2022-12-08T14:55:16.755Z,99903.78
2022-12-08T14:57:45.098Z,99901.97
2022-12-08T15:00:22.060Z,99905.38
2022-12-08T15:02:50.503Z,99901.03
2022-12-08T15:05:22.035Z,99902.16
2022-12-08T15:07:53.950Z,99897.25
2022-12-08T15:10:29.102Z,99907.66
2022-12-08T15:13:07.581Z,99899.19
2022-12-08T15:15:50.818Z,99903.41
2022-12-08T15:18:20.918Z,99900.16
2022-12-08T15:20:52.917Z,99898.59
2022-12-08T15:23:26.947Z,99898.53
2022-12-08T15:25:55.917Z,99898.53
2022-12-08T15:28:29.636Z,99897.00
2022-12-08T15:31:00.294Z,99888.66
2022-12-08T15:33:29.008Z,99892.38
2022-12-08T15:35:57.338Z,99891.97
2022-12-08T15:38:29.720Z,99900.66
2022-12-08T15:40:59.207Z,99892.19
2022-12-08T15:43:27.924Z,99894.03
2022-12-08T15:45:59.856Z,99886.38
2022-12-08T15:48:30.139Z,99897.25
2022-12-08T15:50:58.783Z,99898.09
2022-12-08T15:53:29.857Z,99894.84
2022-12-08T15:56:26.321Z,99898.34
2022-12-08T15:58:55.567Z,99902.75
2022-12-08T16:01:24.818Z,99902.00
2022-12-08T16:04:37.233Z,99903.03
2022-12-08T16:07:19.612Z,99904.78
2022-12-08T16:09:38.516Z,99902.28
2022-12-08T16:12:25.300Z,99903.06
2022-12-08T16:17:42.882Z,99908.22
2022-12-08T16:20:15.512Z,99906.47
2022-12-08T16:22:56.403Z,99903.41
2022-12-08T16:25:52.821Z,99903.34
2022-12-08T16:28:52.817Z,99904.13
2022-12-08T16:31:16.677Z,99907.44
2022-12-08T16:33:48.143Z,99902.31
2022-12-08T16:36:16.402Z,99893.03
2022-12-08T16:38:44.824Z,99898.38
2022-12-08T16:41:33.841Z,99904.59
2022-12-08T16:44:03.616Z,99900.28
2022-12-08T16:46:34.088Z,99892.53
2022-12-08T16:49:02.578Z,99893.31
2022-12-08T16:51:30.898Z,99897.69
2022-12-08T16:54:00.083Z,99896.81
2022-12-08T16:56:33.076Z,99884.75
2022-12-08T16:59:03.060Z,99888.25
2022-12-08T17:01:32.196Z,99878.81
2022-12-08T17:04:30.472Z,99879.75
2022-12-08T17:06:51.071Z,99879.16
2022-12-08T17:09:20.549Z,99882.78
2022-12-08T17:11:50.333Z,99876.97
2022-12-08T17:14:18.728Z,99883.22
2022-12-08T17:16:47.143Z,99875.66
2022-12-08T17:19:16.079Z,99867.28
2022-12-08T17:21:45.301Z,99881.09
2022-12-08T17:24:17.125Z,99881.31
2022-12-08T17:26:50.197Z,99878.94
2022-12-08T17:29:18.884Z,99882.53
2022-12-08T17:31:47.474Z,99886.19
2022-12-08T17:34:18.209Z,99882.91
2022-12-08T17:36:46.668Z,99886.50
2022-12-08T17:39:18.825Z,99896.94
2022-12-08T17:41:47.766Z,99888.66
2022-12-08T17:44:18.940Z,99884.50
2022-12-08T17:46:52.499Z,99888.00
2022-12-08T17:49:24.607Z,99894.09
2022-12-08T17:51:56.554Z,99898.41
2022-12-08T17:54:25.485Z,99894.09
2022-12-08T17:56:54.250Z,99894.13
2022-12-08T17:59:24.065Z,99895.88
2022-12-08T18:01:53.986Z,99891.69
2022-12-08T18:04:22.780Z,99892.56
2022-12-08T18:06:51.120Z,99895.28
2022-12-08T18:09:20.247Z,99898.84
2022-12-08T18:11:48.900Z,99898.22
2022-12-08T18:14:17.696Z,99897.56
2022-12-08T18:16:48.145Z,99901.97
2022-12-08T18:19:17.223Z,99906.34
2022-12-08T18:21:45.902Z,99901.34
2022-12-08T18:24:19.686Z,99901.44
2022-12-08T18:26:48.463Z,99898.06
2022-12-08T18:29:16.864Z,99898.06
2022-12-08T18:31:46.697Z,99903.22
2022-12-08T18:34:15.163Z,99899.81
2022-12-08T18:36:43.595Z,99899.81
2022-12-08T18:39:23.352Z,99898.94
2022-12-08T18:41:51.799Z,99895.56
2022-12-08T18:44:20.742Z,99908.44
2022-12-08T18:46:50.702Z,99902.53
2022-12-08T18:49:20.792Z,99905.94
2022-12-08T18:51:49.285Z,99905.09
2022-12-08T18:54:17.707Z,99898.25
2022-12-08T18:56:46.104Z,99898.13
2022-12-08T18:59:14.882Z,99894.56
2022-12-08T19:01:43.692Z,99891.88
2022-12-08T19:04:28.278Z,99892.63
2022-12-08T19:06:58.792Z,99882.41
2022-12-08T19:09:29.136Z,99885.03
2022-12-08T19:11:58.606Z,99893.66
2022-12-08T19:14:28.433Z,99884.25
2022-12-08T19:16:57.891Z,99886.03
2022-12-08T19:19:28.287Z,99884.38
2022-12-08T19:21:57.159Z,99880.03
2022-12-08T19:24:26.012Z,99876.69
2022-12-08T19:26:54.435Z,99874.00
2022-12-08T19:29:22.831Z,99869.66
2022-12-08T19:31:51.288Z,99875.63
2022-12-08T19:34:20.115Z,99863.63
2022-12-08T19:36:50.105Z,99866.25
2022-12-08T19:39:37.361Z,99863.75
2022-12-08T19:42:24.606Z,99860.38
2022-12-08T19:44:55.654Z,99863.72
2022-12-08T19:47:25.699Z,99873.94
2022-12-08T19:49:54.969Z,99864.53
2022-12-08T19:52:24.987Z,99857.72
2022-12-08T19:54:53.341Z,99855.13
2022-12-08T19:57:22.195Z,99839.94
2022-12-08T20:00:03.537Z,99844.22
2022-12-08T20:02:38.342Z,99846.19
2022-12-08T20:05:07.678Z,99841.88
2022-12-08T20:07:37.674Z,99848.06
2022-12-08T20:10:08.037Z,99841.19
2022-12-08T20:12:36.730Z,99849.66
2022-12-08T20:15:05.618Z,99848.63
2022-12-08T20:17:33.994Z,99852.88
2022-12-08T20:20:06.807Z,99847.75
2022-12-08T20:22:37.736Z,99852.88
2022-12-08T20:25:06.658Z,99853.66
2022-12-08T20:27:35.029Z,99852.81
2022-12-08T20:30:03.458Z,99851.13
2022-12-08T20:32:31.832Z,99860.69
2022-12-08T20:35:00.307Z,99858.22
2022-12-08T20:37:28.638Z,99871.13
2022-12-08T20:39:58.456Z,99866.88
2022-12-08T20:42:26.901Z,99857.34
2022-12-08T20:44:55.700Z,99853.81
2022-12-08T20:47:24.069Z,99851.97
2022-12-08T20:49:52.456Z,99850.91
2022-12-08T20:52:20.812Z,99852.44
2022-12-08T20:54:51.415Z,99855.06
2022-12-08T20:57:22.432Z,99856.72
2022-12-08T20:59:50.875Z,99858.47
2022-12-08T21:02:19.374Z,99864.44
2022-12-08T21:04:50.431Z,99849.78
2022-12-08T21:07:19.167Z,99856.53
2022-12-08T21:09:47.627Z,99848.81
2022-12-08T21:12:16.238Z,99853.00
2022-12-08T21:14:46.336Z,99849.59
2022-12-08T21:17:15.707Z,99856.34
2022-12-08T21:19:44.837Z,99858.88
2022-12-08T21:22:14.345Z,99848.59
2022-12-08T21:24:43.598Z,99845.06
2022-12-08T21:27:11.992Z,99851.00
2022-12-08T21:29:40.541Z,99858.66
2022-12-08T21:32:10.458Z,99850.16
2022-12-08T21:34:38.949Z,99851.88
2022-12-08T21:37:07.479Z,99854.44
2022-12-08T21:39:37.668Z,99857.09
2022-12-08T21:42:24.298Z,99856.41
2022-12-08T21:44:55.751Z,99859.84
2022-12-08T21:47:25.678Z,99854.63
2022-12-08T21:49:54.181Z,99856.25
2022-12-08T21:52:23.616Z,99862.28
2022-12-08T21:54:52.792Z,99860.63
2022-12-08T21:57:21.539Z,99861.63
2022-12-08T21:59:50.621Z,99859.91
2022-12-08T22:02:22.663Z,99866.16
2022-12-08T22:04:53.084Z,99867.16
2022-12-08T22:07:22.509Z,99860.41
2022-12-08T22:09:51.871Z,99864.00
2022-12-08T22:12:20.580Z,99857.28
2022-12-08T22:14:51.072Z,99847.06
2022-12-08T22:17:20.229Z,99850.56
2022-12-08T22:19:50.467Z,99847.22
2022-12-08T22:22:20.782Z,99843.91
2022-12-08T22:24:49.380Z,99852.53
2022-12-08T22:27:17.776Z,99850.09
2022-12-08T22:29:48.007Z,99850.22
2022-12-08T22:32:16.636Z,99849.47
2022-12-08T22:34:45.132Z,99847.78
2022-12-08T22:37:13.813Z,99846.97
2022-12-08T22:39:44.995Z,99848.00
2022-12-08T22:42:13.538Z,99848.91
2022-12-08T22:44:42.391Z,99839.53
2022-12-08T22:47:10.926Z,99834.41
2022-12-08T22:49:39.392Z,99832.75
2022-12-08T22:52:07.963Z,99827.66
2022-12-08T22:54:37.560Z,99830.25
2022-12-08T22:57:07.367Z,99838.03
2022-12-08T22:59:36.150Z,99840.63
2022-12-08T23:02:04.593Z,99840.66
2022-12-08T23:04:33.010Z,99832.16
2022-12-08T23:07:01.776Z,99834.72
2022-12-08T23:09:31.227Z,99835.59
2022-12-08T23:11:59.576Z,99839.09
2022-12-08T23:14:29.519Z,99836.59
2022-12-08T23:16:58.024Z,99833.28
2022-12-08T23:19:26.372Z,99833.34
2022-12-08T23:21:56.446Z,99829.13
2022-12-08T23:24:25.432Z,99827.47
2022-12-08T23:26:53.756Z,99823.31
2022-12-08T23:29:22.133Z,99824.16
2022-12-08T23:31:52.113Z,99819.94
2022-12-08T23:34:21.366Z,99817.44
2022-12-08T23:36:49.863Z,99824.38
2022-12-08T23:39:18.315Z,99815.94
2022-12-08T23:41:48.043Z,99815.19
2022-12-08T23:44:16.438Z,99822.09
2022-12-08T23:46:45.540Z,99820.44
2022-12-08T23:49:15.981Z,99824.75
2022-12-08T23:51:46.374Z,99822.28
2022-12-08T23:54:14.698Z,99826.56
2022-12-08T23:56:43.285Z,99825.72
2022-12-08T23:59:11.947Z,99820.66
